createdAt,value
2019-03-19T00:00:33.702Z,55.34
2019-03-19T00:01:37.368Z,55.23
2019-03-19T00:02:40.998Z,55.43
2019-03-19T00:03:44.628Z,55.51
2019-03-19T00:04:48.259Z,55.96
2019-03-19T00:05:51.896Z,56.23
2019-03-19T00:06:55.567Z,56.65
2019-03-19T00:07:59.208Z,56.93
2019-03-19T00:09:03.131Z,57.15
2019-03-19T00:10:08.952Z,57.36
2019-03-19T00:11:12.599Z,57.43
2019-03-19T00:12:16.680Z,57.88
2019-03-19T00:13:20.380Z,58.07
2019-03-19T00:14:24.026Z,57.96
2019-03-19T00:15:27.654Z,57.86
2019-03-19T00:16:31.364Z,57.96
2019-03-19T00:17:34.960Z,57.96
2019-03-19T00:18:38.580Z,57.90
2019-03-19T00:19:42.208Z,58.02
2019-03-19T00:20:45.755Z,57.97
2019-03-19T00:21:49.394Z,57.92
2019-03-19T00:22:53.051Z,58.20
2019-03-19T00:23:56.614Z,58.16
2019-03-19T00:25:00.406Z,58.19
2019-03-19T00:26:04.123Z,58.31
2019-03-19T00:27:07.766Z,58.63
2019-03-19T00:28:11.431Z,58.67
2019-03-19T00:29:15.168Z,58.49
2019-03-19T00:30:19.272Z,58.61
2019-03-19T00:31:22.892Z,58.56
2019-03-19T00:32:26.456Z,58.87
2019-03-19T00:33:30.127Z,59.00
2019-03-19T00:34:33.752Z,59.00
2019-03-19T00:35:37.386Z,59.10
2019-03-19T00:36:41.014Z,59.30
2019-03-19T00:37:44.653Z,59.25
2019-03-19T00:38:48.248Z,59.50
2019-03-19T00:39:51.872Z,59.34
2019-03-19T00:40:55.511Z,59.34
2019-03-19T00:41:59.142Z,59.39
2019-03-19T00:43:02.776Z,59.64
2019-03-19T00:44:06.511Z,59.80
2019-03-19T00:45:12.145Z,59.82
2019-03-19T00:46:15.791Z,60.11
2019-03-19T00:47:19.522Z,60.11
2019-03-19T00:48:23.154Z,59.40
2019-03-19T00:49:26.747Z,60.10
2019-03-19T00:50:30.381Z,60.29
2019-03-19T00:51:34.059Z,60.34
2019-03-19T00:52:38.015Z,60.33
2019-03-19T00:53:41.648Z,60.27
2019-03-19T00:54:45.313Z,60.66
2019-03-19T00:55:48.967Z,60.63
2019-03-19T00:56:52.605Z,60.70
2019-03-19T00:57:56.230Z,60.64
2019-03-19T00:58:59.859Z,60.61
2019-03-19T01:00:04.976Z,60.75
2019-03-19T01:01:08.629Z,60.63
2019-03-19T01:02:12.267Z,60.69
2019-03-19T01:03:15.887Z,60.62
2019-03-19T01:04:19.512Z,60.52
2019-03-19T01:05:23.185Z,60.63
2019-03-19T01:06:26.822Z,60.63
2019-03-19T01:07:30.452Z,60.12
2019-03-19T01:08:34.568Z,60.99
2019-03-19T01:09:38.272Z,60.47
2019-03-19T01:10:41.852Z,60.47
2019-03-19T01:11:45.493Z,60.61
2019-03-19T01:12:49.147Z,61.21
2019-03-19T01:13:52.752Z,61.41
2019-03-19T01:14:56.359Z,61.41
2019-03-19T01:16:00.001Z,61.41
2019-03-19T01:17:03.743Z,61.76
2019-03-19T01:18:07.443Z,61.76
2019-03-19T01:19:11.069Z,61.75
2019-03-19T01:20:16.469Z,61.97
2019-03-19T01:21:20.136Z,62.01
2019-03-19T01:22:23.779Z,61.98
2019-03-19T01:23:27.345Z,61.98
2019-03-19T01:24:30.981Z,61.78
2019-03-19T01:25:35.177Z,61.97
2019-03-19T01:26:39.037Z,61.97
2019-03-19T01:27:42.672Z,62.13
2019-03-19T01:28:46.308Z,62.65
2019-03-19T01:29:49.955Z,62.32
2019-03-19T01:30:53.599Z,62.67
2019-03-19T01:31:57.274Z,62.67
2019-03-19T01:33:00.906Z,62.47
2019-03-19T01:34:04.540Z,62.54
2019-03-19T01:35:08.375Z,62.52
2019-03-19T01:36:12.008Z,62.55
2019-03-19T01:37:15.679Z,62.44
2019-03-19T01:38:19.314Z,62.40
2019-03-19T01:39:23.038Z,62.63
2019-03-19T01:40:26.745Z,62.63
2019-03-19T01:41:30.503Z,62.50
2019-03-19T01:42:34.170Z,62.51
2019-03-19T01:43:37.806Z,62.95
2019-03-19T01:44:41.513Z,62.83
2019-03-19T01:45:45.189Z,62.81
2019-03-19T01:46:48.820Z,62.88
2019-03-19T01:47:52.495Z,62.65
2019-03-19T01:48:56.153Z,62.49
2019-03-19T01:49:59.795Z,62.49
2019-03-19T01:51:03.432Z,62.55
2019-03-19T01:52:07.064Z,62.62
2019-03-19T01:53:10.733Z,62.68
2019-03-19T01:54:14.368Z,62.67
2019-03-19T01:55:18.001Z,62.99
2019-03-19T01:56:21.630Z,62.86
2019-03-19T01:57:25.282Z,62.86
2019-03-19T01:58:28.890Z,63.51
2019-03-19T01:59:32.521Z,63.29
2019-03-19T02:00:36.146Z,63.08
2019-03-19T02:01:39.788Z,63.46
2019-03-19T02:02:43.360Z,63.46
2019-03-19T02:03:47.027Z,63.72
2019-03-19T02:04:50.657Z,63.72
2019-03-19T02:05:54.296Z,63.49
2019-03-19T02:06:58.010Z,63.27
2019-03-19T02:08:01.567Z,63.36
2019-03-19T02:09:08.276Z,63.31
2019-03-19T02:10:13.311Z,63.31
2019-03-19T02:11:18.512Z,63.62
2019-03-19T02:12:22.082Z,63.60
2019-03-19T02:13:25.714Z,63.60
2019-03-19T02:14:29.797Z,64.17
2019-03-19T02:15:33.428Z,63.90
2019-03-19T02:16:37.118Z,64.35
2019-03-19T02:17:40.933Z,64.35
2019-03-19T02:18:44.612Z,64.61
2019-03-19T02:19:48.293Z,64.58
2019-03-19T02:20:51.926Z,64.58
2019-03-19T02:21:55.571Z,63.95
2019-03-19T02:22:59.591Z,63.95
2019-03-19T02:24:03.243Z,64.08
2019-03-19T02:25:09.234Z,63.96
2019-03-19T02:26:16.808Z,63.86
2019-03-19T02:27:18.227Z,63.86
2019-03-19T02:28:21.784Z,64.67
2019-03-19T02:29:25.343Z,64.67
2019-03-19T02:30:28.999Z,64.58
2019-03-19T02:31:32.621Z,64.58
2019-03-19T02:32:36.258Z,64.49
2019-03-19T02:33:39.888Z,65.17
2019-03-19T02:34:43.559Z,65.96
2019-03-19T02:35:47.431Z,65.11
2019-03-19T02:36:51.070Z,64.76
2019-03-19T02:37:54.740Z,65.58
2019-03-19T02:38:58.375Z,65.66
2019-03-19T02:40:02.034Z,65.66
2019-03-19T02:41:05.664Z,65.12
2019-03-19T02:42:09.310Z,65.07
2019-03-19T02:43:12.939Z,65.07
2019-03-19T02:44:16.658Z,65.48
2019-03-19T02:45:20.284Z,65.28
2019-03-19T02:46:24.340Z,65.25
2019-03-19T02:47:27.977Z,65.25
2019-03-19T02:48:31.611Z,64.95
2019-03-19T02:49:35.254Z,65.02
2019-03-19T02:50:38.990Z,65.02
2019-03-19T02:51:42.626Z,65.36
2019-03-19T02:52:46.505Z,65.72
2019-03-19T02:53:50.178Z,65.89
2019-03-19T02:54:53.814Z,65.73
2019-03-19T02:55:57.438Z,65.92
2019-03-19T02:57:01.104Z,66.09
2019-03-19T02:58:05.010Z,66.24
2019-03-19T02:59:08.746Z,66.90
2019-03-19T03:00:19.627Z,66.64
2019-03-19T03:01:23.217Z,66.64
2019-03-19T03:02:26.857Z,66.44
2019-03-19T03:03:30.481Z,66.44
2019-03-19T03:04:34.117Z,67.51
2019-03-19T03:05:37.751Z,67.51
2019-03-19T03:06:41.382Z,67.42
2019-03-19T03:07:45.863Z,67.30
2019-03-19T03:08:49.480Z,67.13
2019-03-19T03:09:53.113Z,67.22
2019-03-19T03:10:56.819Z,67.21
2019-03-19T03:12:00.452Z,67.03
2019-03-19T03:13:04.454Z,67.00
2019-03-19T03:14:08.157Z,67.00
2019-03-19T03:15:15.962Z,66.94
2019-03-19T03:16:19.586Z,66.79
2019-03-19T03:17:23.224Z,66.84
2019-03-19T03:18:27.224Z,66.89
2019-03-19T03:19:30.855Z,66.75
2019-03-19T03:20:34.501Z,66.64
2019-03-19T03:21:38.071Z,66.61
2019-03-19T03:22:41.686Z,66.53
2019-03-19T03:23:45.719Z,66.43
2019-03-19T03:24:49.346Z,66.50
2019-03-19T03:25:52.980Z,66.06
2019-03-19T03:26:56.621Z,66.06
2019-03-19T03:28:00.258Z,66.30
2019-03-19T03:29:03.933Z,65.98
2019-03-19T03:30:13.220Z,65.98
2019-03-19T03:31:16.915Z,65.54
2019-03-19T03:32:20.542Z,65.54
2019-03-19T03:33:24.285Z,65.44
2019-03-19T03:34:27.934Z,65.38
2019-03-19T03:35:31.568Z,65.01
2019-03-19T03:36:35.191Z,65.17
2019-03-19T03:37:38.826Z,66.32
2019-03-19T03:38:42.469Z,66.47
2019-03-19T03:39:46.129Z,66.85
2019-03-19T03:40:49.925Z,66.66
2019-03-19T03:41:53.553Z,66.42
2019-03-19T03:42:57.262Z,66.39
2019-03-19T03:44:01.364Z,65.95
2019-03-19T03:45:07.962Z,66.20
2019-03-19T03:46:11.597Z,66.10
2019-03-19T03:47:15.240Z,66.37
2019-03-19T03:48:18.881Z,66.36
2019-03-19T03:49:22.516Z,66.37
2019-03-19T03:50:26.171Z,66.19
2019-03-19T03:51:29.806Z,66.20
2019-03-19T03:52:33.440Z,66.20
2019-03-19T03:53:37.078Z,66.43
2019-03-19T03:54:40.700Z,66.83
2019-03-19T03:55:44.365Z,66.83
2019-03-19T03:57:01.399Z,66.50
2019-03-19T03:57:53.356Z,66.49
2019-03-19T03:59:01.101Z,66.50
2019-03-19T04:00:02.433Z,66.55
2019-03-19T04:01:06.102Z,66.64
2019-03-19T04:02:09.744Z,66.66
2019-03-19T04:03:13.370Z,66.80
2019-03-19T04:04:16.997Z,67.23
2019-03-19T04:05:20.618Z,67.24
2019-03-19T04:06:24.303Z,67.20
2019-03-19T04:07:27.923Z,67.31
2019-03-19T04:08:31.472Z,67.31
2019-03-19T04:09:35.220Z,67.23
2019-03-19T04:10:39.137Z,67.56
2019-03-19T04:11:42.794Z,67.67
2019-03-19T04:12:46.643Z,67.77
2019-03-19T04:13:50.268Z,67.86
2019-03-19T04:14:53.899Z,67.84
2019-03-19T04:15:57.535Z,67.92
2019-03-19T04:17:01.199Z,67.92
2019-03-19T04:18:05.413Z,67.91
2019-03-19T04:19:09.192Z,67.86
2019-03-19T04:20:14.111Z,68.14
2019-03-19T04:21:17.805Z,68.22
2019-03-19T04:22:21.477Z,68.31
2019-03-19T04:23:25.118Z,68.65
2019-03-19T04:24:29.049Z,68.65
2019-03-19T04:25:32.679Z,68.77
2019-03-19T04:26:36.308Z,68.90
2019-03-19T04:27:40.869Z,68.90
2019-03-19T04:28:44.785Z,68.79
2019-03-19T04:29:48.422Z,68.74
2019-03-19T04:30:52.051Z,68.72
2019-03-19T04:31:55.669Z,68.62
2019-03-19T04:32:59.354Z,68.53
2019-03-19T04:34:03.001Z,68.49
2019-03-19T04:35:07.433Z,68.60
2019-03-19T04:36:11.060Z,68.51
2019-03-19T04:37:15.536Z,68.37
2019-03-19T04:38:19.495Z,68.44
2019-03-19T04:39:23.465Z,68.34
2019-03-19T04:40:27.112Z,68.32
2019-03-19T04:41:30.744Z,68.17
2019-03-19T04:42:34.453Z,68.21
2019-03-19T04:43:38.080Z,68.49
2019-03-19T04:44:41.796Z,69.17
2019-03-19T04:45:45.463Z,70.24
2019-03-19T04:46:49.096Z,70.43
2019-03-19T04:47:52.772Z,72.10
2019-03-19T04:48:56.523Z,71.72
2019-03-19T04:50:00.498Z,71.98
2019-03-19T04:51:04.233Z,72.30
2019-03-19T04:52:07.928Z,71.59
2019-03-19T04:53:11.667Z,70.70
2019-03-19T04:54:15.292Z,69.79
2019-03-19T04:55:18.927Z,69.14
2019-03-19T04:56:22.566Z,68.58
2019-03-19T04:57:27.281Z,68.23
2019-03-19T04:58:32.402Z,67.98
2019-03-19T04:59:36.741Z,67.76
2019-03-19T05:00:40.385Z,69.67
2019-03-19T05:01:44.013Z,68.63
2019-03-19T05:02:47.664Z,68.09
2019-03-19T05:03:51.306Z,66.69
2019-03-19T05:04:55.012Z,67.64
2019-03-19T05:05:59.632Z,68.40
2019-03-19T05:07:03.737Z,68.93
2019-03-19T05:08:07.357Z,68.73
2019-03-19T05:09:13.048Z,69.18
2019-03-19T05:10:18.625Z,69.92
2019-03-19T05:11:22.260Z,71.21
2019-03-19T05:12:27.446Z,71.82
2019-03-19T05:13:32.547Z,72.25
2019-03-19T05:14:36.137Z,72.18
2019-03-19T05:15:39.828Z,72.58
2019-03-19T05:16:43.886Z,74.08
2019-03-19T05:17:47.514Z,73.30
2019-03-19T05:18:51.151Z,72.28
2019-03-19T05:19:54.868Z,72.62
2019-03-19T05:20:58.887Z,72.62
2019-03-19T05:22:02.528Z,72.16
2019-03-19T05:23:06.276Z,71.52
2019-03-19T05:24:09.910Z,72.69
2019-03-19T05:25:13.603Z,73.08
2019-03-19T05:26:17.393Z,73.57
2019-03-19T05:27:21.024Z,74.46
2019-03-19T05:28:24.681Z,74.58
2019-03-19T05:29:28.311Z,74.57
2019-03-19T05:30:32.075Z,75.57
2019-03-19T05:31:35.705Z,75.47
2019-03-19T05:32:39.342Z,75.58
2019-03-19T05:33:43.055Z,75.45
2019-03-19T05:34:46.757Z,76.33
2019-03-19T05:35:50.419Z,76.20
2019-03-19T05:36:53.980Z,76.01
2019-03-19T05:37:57.542Z,76.21
2019-03-19T05:39:01.319Z,76.07
2019-03-19T05:40:08.048Z,76.02
2019-03-19T05:41:12.009Z,75.91
2019-03-19T05:42:15.644Z,75.85
2019-03-19T05:43:19.279Z,75.50
2019-03-19T05:44:22.912Z,75.55
2019-03-19T05:45:26.549Z,75.62
2019-03-19T05:46:30.209Z,75.69
2019-03-19T05:47:37.490Z,75.95
2019-03-19T05:48:39.603Z,75.48
2019-03-19T05:49:43.233Z,75.23
2019-03-19T05:50:46.930Z,74.88
2019-03-19T05:51:50.672Z,75.34
2019-03-19T05:52:54.313Z,74.89
2019-03-19T05:53:57.882Z,75.21
2019-03-19T05:55:01.615Z,74.90
2019-03-19T05:56:05.255Z,75.13
2019-03-19T05:57:08.918Z,75.33
2019-03-19T05:58:12.642Z,75.19
2019-03-19T05:59:16.196Z,74.76
2019-03-19T06:00:22.004Z,74.33
2019-03-19T06:01:25.963Z,74.07
2019-03-19T06:02:29.628Z,73.46
2019-03-19T06:03:33.557Z,73.03
2019-03-19T06:04:37.193Z,73.89
2019-03-19T06:05:40.897Z,74.53
2019-03-19T06:06:44.613Z,74.94
2019-03-19T06:07:48.300Z,75.00
2019-03-19T06:08:51.920Z,74.20
2019-03-19T06:09:55.553Z,73.98
2019-03-19T06:10:59.189Z,74.04
2019-03-19T06:12:02.826Z,74.91
2019-03-19T06:13:06.501Z,74.85
2019-03-19T06:14:10.137Z,75.16
2019-03-19T06:15:14.673Z,75.40
2019-03-19T06:16:18.308Z,76.78
2019-03-19T06:17:21.870Z,78.49
2019-03-19T06:18:34.592Z,77.40
2019-03-19T06:19:30.809Z,76.76
2019-03-19T06:20:34.527Z,76.18
2019-03-19T06:21:38.159Z,76.59
2019-03-19T06:22:41.812Z,76.07
2019-03-19T06:23:45.471Z,76.37
2019-03-19T06:24:49.679Z,74.02
2019-03-19T06:25:53.319Z,74.39
2019-03-19T06:26:56.943Z,74.42
2019-03-19T06:28:01.073Z,73.00
2019-03-19T06:29:05.017Z,72.62
2019-03-19T06:30:22.312Z,72.90
2019-03-19T06:31:25.956Z,72.78
2019-03-19T06:32:29.594Z,72.42
2019-03-19T06:33:33.217Z,72.52
2019-03-19T06:34:36.881Z,72.60
2019-03-19T06:35:40.519Z,72.82
2019-03-19T06:36:44.154Z,72.42
2019-03-19T06:37:47.809Z,72.75
2019-03-19T06:38:51.453Z,72.97
2019-03-19T06:39:55.104Z,73.12
2019-03-19T06:40:58.738Z,72.54
2019-03-19T06:42:02.461Z,71.62
2019-03-19T06:43:06.100Z,71.79
2019-03-19T06:44:09.732Z,71.47
2019-03-19T06:45:21.781Z,71.43
2019-03-19T06:46:25.416Z,71.24
2019-03-19T06:47:29.052Z,70.52
2019-03-19T06:48:32.688Z,70.53
2019-03-19T06:49:36.627Z,70.46
2019-03-19T06:50:45.061Z,69.53
2019-03-19T06:51:45.659Z,69.18
2019-03-19T06:52:49.308Z,68.45
2019-03-19T06:53:52.945Z,68.32
2019-03-19T06:54:56.575Z,68.09
2019-03-19T06:56:00.262Z,68.23
2019-03-19T06:57:04.224Z,68.45
2019-03-19T06:58:11.330Z,67.61
2019-03-19T06:59:13.558Z,67.61
2019-03-19T07:00:24.130Z,66.35
2019-03-19T07:01:27.795Z,65.54
2019-03-19T07:02:31.436Z,65.54
2019-03-19T07:03:35.010Z,65.53
2019-03-19T07:04:38.641Z,65.24
2019-03-19T07:05:42.363Z,64.14
2019-03-19T07:06:45.964Z,64.06
2019-03-19T07:07:49.610Z,64.06
2019-03-19T07:08:53.310Z,63.80
2019-03-19T07:09:56.992Z,63.69
2019-03-19T07:11:00.582Z,63.64
2019-03-19T07:12:04.258Z,62.58
2019-03-19T07:13:07.896Z,61.88
2019-03-19T07:14:11.607Z,63.80
2019-03-19T07:15:18.987Z,63.80
2019-03-19T07:16:22.645Z,63.66
2019-03-19T07:17:26.317Z,63.66
2019-03-19T07:18:29.944Z,62.10
2019-03-19T07:19:33.656Z,61.88
2019-03-19T07:20:37.295Z,61.90
2019-03-19T07:21:40.944Z,61.42
2019-03-19T07:22:44.679Z,61.08
2019-03-19T07:23:59.239Z,59.79
2019-03-19T07:25:03.218Z,59.61
2019-03-19T07:26:07.188Z,59.58
2019-03-19T07:27:10.821Z,58.24
2019-03-19T07:28:22.055Z,56.83
2019-03-19T07:29:19.860Z,55.41
2019-03-19T07:30:25.575Z,55.29
2019-03-19T07:31:31.087Z,55.15
2019-03-19T07:32:34.588Z,54.10
2019-03-19T07:33:56.508Z,54.87
2019-03-19T07:35:05.156Z,54.89
2019-03-19T07:36:30.163Z,54.98
2019-03-19T07:37:34.194Z,55.58
2019-03-19T07:38:37.836Z,54.01
2019-03-19T07:39:41.508Z,52.67
2019-03-19T07:40:45.254Z,52.85
2019-03-19T07:41:48.891Z,52.85
2019-03-19T07:42:52.532Z,51.91
2019-03-19T07:43:56.194Z,51.13
2019-03-19T07:44:59.900Z,50.49
2019-03-19T07:46:03.542Z,49.18
2019-03-19T07:47:07.187Z,49.57
2019-03-19T07:48:10.836Z,49.13
2019-03-19T07:49:14.459Z,48.30
2019-03-19T07:50:19.337Z,47.25
2019-03-19T07:51:22.972Z,47.11
2019-03-19T07:52:26.603Z,45.99
2019-03-19T07:53:30.254Z,45.93
2019-03-19T07:54:33.905Z,45.27
2019-03-19T07:55:37.596Z,44.81
2019-03-19T07:56:41.175Z,45.12
2019-03-19T07:57:44.814Z,45.30
2019-03-19T07:58:48.511Z,45.48
2019-03-19T07:59:52.152Z,44.07
2019-03-19T08:00:55.817Z,44.38
2019-03-19T08:01:59.758Z,43.89
2019-03-19T08:03:03.330Z,43.86
2019-03-19T08:04:06.962Z,42.38
2019-03-19T08:05:11.300Z,41.87
2019-03-19T08:06:14.969Z,42.51
2019-03-19T08:07:18.942Z,42.58
2019-03-19T08:08:22.652Z,42.03
2019-03-19T08:09:26.396Z,42.04
2019-03-19T08:10:30.013Z,42.29
2019-03-19T08:11:33.685Z,42.79
2019-03-19T08:12:37.317Z,42.10
2019-03-19T08:13:40.960Z,42.27
2019-03-19T08:14:44.523Z,42.85
2019-03-19T08:15:48.154Z,42.32
2019-03-19T08:16:53.298Z,41.26
2019-03-19T08:17:57.036Z,41.45
2019-03-19T08:19:00.677Z,40.66
2019-03-19T08:20:06.715Z,40.16
2019-03-19T08:21:10.383Z,40.26
2019-03-19T08:22:14.058Z,40.05
2019-03-19T08:23:17.693Z,40.31
2019-03-19T08:24:22.550Z,40.65
2019-03-19T08:25:26.188Z,41.09
2019-03-19T08:26:29.823Z,40.30
2019-03-19T08:27:33.483Z,39.87
2019-03-19T08:28:37.161Z,39.92
2019-03-19T08:29:40.754Z,40.15
2019-03-19T08:30:44.398Z,39.33
2019-03-19T08:31:48.641Z,38.96
2019-03-19T08:32:52.315Z,39.11
2019-03-19T08:34:00.240Z,39.03
2019-03-19T08:35:04.156Z,38.86
2019-03-19T08:36:09.498Z,39.14
2019-03-19T08:40:24.679Z,37.77
2019-03-19T08:42:58.097Z,37.07
2019-03-19T08:44:01.137Z,36.71
2019-03-19T08:45:09.107Z,36.33
2019-03-19T08:49:14.397Z,34.38
2019-03-19T08:50:21.253Z,35.61
2019-03-19T08:51:24.845Z,35.08
2019-03-19T08:52:28.492Z,34.48
2019-03-19T08:53:33.702Z,33.52
2019-03-19T08:54:37.329Z,32.70
2019-03-19T08:55:42.183Z,31.91
2019-03-19T08:56:45.833Z,32.14
2019-03-19T08:57:50.536Z,32.68
2019-03-19T08:58:54.102Z,31.34
2019-03-19T08:59:57.832Z,30.56
2019-03-19T09:01:01.507Z,29.93
2019-03-19T09:02:05.268Z,29.61
2019-03-19T09:03:09.751Z,28.86
2019-03-19T09:04:14.854Z,29.72
2019-03-19T09:05:18.498Z,30.30
2019-03-19T09:06:22.168Z,29.78
2019-03-19T09:07:25.877Z,29.41
2019-03-19T09:08:30.758Z,29.51
2019-03-19T09:09:34.388Z,29.82
2019-03-19T09:10:37.836Z,28.88
2019-03-19T09:11:41.495Z,27.99
2019-03-19T09:12:45.234Z,27.65
2019-03-19T09:13:48.873Z,27.44
2019-03-19T09:14:52.500Z,27.40
2019-03-19T09:15:56.134Z,27.05
2019-03-19T09:16:59.809Z,27.32
2019-03-19T09:18:03.886Z,26.91
2019-03-19T09:19:07.522Z,26.20
2019-03-19T09:20:17.796Z,25.81
2019-03-19T09:21:21.428Z,25.93
2019-03-19T09:22:29.638Z,25.29
2019-03-19T09:23:30.464Z,25.92
2019-03-19T09:24:34.115Z,26.13
2019-03-19T09:25:37.751Z,26.77
2019-03-19T09:26:41.398Z,25.79
2019-03-19T09:27:45.071Z,24.58
2019-03-19T09:28:48.708Z,25.01
2019-03-19T09:29:52.437Z,24.53
2019-03-19T09:30:56.082Z,25.41
2019-03-19T09:31:59.650Z,25.54
2019-03-19T09:33:03.329Z,25.88
2019-03-19T09:34:07.337Z,25.83
2019-03-19T09:35:11.190Z,24.69
2019-03-19T09:36:14.896Z,25.27
2019-03-19T09:37:18.537Z,24.56
2019-03-19T09:38:22.515Z,25.35
2019-03-19T09:39:26.157Z,24.24
2019-03-19T09:40:29.811Z,23.23
2019-03-19T09:41:33.438Z,23.62
2019-03-19T09:42:37.079Z,23.13
2019-03-19T09:43:40.742Z,22.75
2019-03-19T09:44:44.710Z,23.32
2019-03-19T09:45:49.783Z,23.02
2019-03-19T09:46:53.420Z,22.69
2019-03-19T09:47:57.067Z,22.79
2019-03-19T09:49:00.804Z,22.89
2019-03-19T09:50:07.055Z,22.71
2019-03-19T09:51:10.720Z,24.03
2019-03-19T09:52:14.358Z,22.30
2019-03-19T09:53:18.856Z,21.27
2019-03-19T09:54:22.661Z,21.88
2019-03-19T09:55:26.309Z,21.36
2019-03-19T09:56:30.322Z,21.38
2019-03-19T09:57:34.036Z,22.50
2019-03-19T09:58:37.705Z,20.96
2019-03-19T09:59:44.346Z,21.37
2019-03-19T10:00:46.777Z,21.53
2019-03-19T10:01:52.164Z,21.36
2019-03-19T10:04:22.838Z,21.72
2019-03-19T10:05:26.511Z,20.95
2019-03-19T10:06:32.123Z,21.38
2019-03-19T10:07:36.222Z,22.38
2019-03-19T10:08:39.795Z,23.06
2019-03-19T10:09:46.098Z,21.89
2019-03-19T10:10:52.335Z,22.17
2019-03-19T10:11:59.593Z,21.15
2019-03-19T10:13:15.774Z,21.64
2019-03-19T10:14:20.763Z,20.77
2019-03-19T10:15:27.027Z,20.98
2019-03-19T10:16:30.692Z,20.58
2019-03-19T10:17:34.328Z,21.39
2019-03-19T10:18:43.630Z,21.92
2019-03-19T10:19:47.269Z,21.70
2019-03-19T10:20:55.873Z,21.71
2019-03-19T10:22:01.413Z,21.09
2019-03-19T10:24:36.372Z,21.92
2019-03-19T10:25:49.761Z,21.76
2019-03-19T10:27:12.545Z,21.01
2019-03-19T10:28:23.919Z,21.62
2019-03-19T10:29:37.565Z,21.41
2019-03-19T10:30:34.551Z,21.79
2019-03-19T10:31:38.197Z,21.64
2019-03-19T10:34:09.987Z,21.97
2019-03-19T10:35:14.096Z,21.93
2019-03-19T10:36:22.119Z,22.37
2019-03-19T10:37:27.391Z,22.83
2019-03-19T10:38:35.128Z,21.37
2019-03-19T10:39:38.998Z,22.28
2019-03-19T10:40:42.635Z,22.51
2019-03-19T10:41:46.274Z,21.27
2019-03-19T10:42:50.479Z,20.84
2019-03-19T10:44:36.412Z,21.09
2019-03-19T10:45:40.076Z,19.98
2019-03-19T10:46:43.714Z,20.84
2019-03-19T10:47:47.419Z,20.22
2019-03-19T10:48:51.047Z,19.82
2019-03-19T10:49:54.685Z,19.85
2019-03-19T10:50:58.372Z,19.99
2019-03-19T10:52:02.005Z,19.50
2019-03-19T10:53:05.643Z,19.44
2019-03-19T10:54:09.309Z,20.22
2019-03-19T10:55:13.040Z,19.31
2019-03-19T10:56:17.014Z,18.74
2019-03-19T10:57:20.638Z,19.19
2019-03-19T10:58:24.275Z,19.37
2019-03-19T10:59:27.902Z,18.45
2019-03-19T11:00:31.715Z,19.94
2019-03-19T11:01:37.021Z,19.26
2019-03-19T11:02:53.851Z,19.29
2019-03-19T11:03:58.726Z,19.06
2019-03-19T11:05:02.361Z,19.40
2019-03-19T11:06:05.994Z,18.76
2019-03-19T11:07:09.662Z,18.93
2019-03-19T11:08:13.297Z,19.91
2019-03-19T11:09:16.925Z,18.83
2019-03-19T11:10:21.232Z,18.53
2019-03-19T11:11:24.863Z,17.85
2019-03-19T11:12:30.043Z,17.91
2019-03-19T11:13:33.670Z,17.32
2019-03-19T11:14:37.303Z,17.57
2019-03-19T11:15:41.003Z,17.36
2019-03-19T11:16:44.634Z,17.52
2019-03-19T11:17:48.296Z,17.15
2019-03-19T11:18:51.927Z,16.90
2019-03-19T11:19:55.561Z,16.46
2019-03-19T11:20:59.224Z,15.95
2019-03-19T11:22:02.864Z,16.04
2019-03-19T11:23:06.524Z,15.74
2019-03-19T11:24:10.317Z,15.36
2019-03-19T11:25:16.803Z,15.74
2019-03-19T11:26:20.431Z,15.56
2019-03-19T11:27:24.068Z,15.27
2019-03-19T11:28:28.107Z,14.78
2019-03-19T11:29:31.675Z,15.96
2019-03-19T11:30:35.307Z,14.55
2019-03-19T11:31:38.935Z,14.36
2019-03-19T11:32:42.573Z,14.75
2019-03-19T11:33:47.684Z,15.03
2019-03-19T11:34:51.446Z,15.47
2019-03-19T11:35:55.145Z,15.16
2019-03-19T11:36:58.791Z,15.13
2019-03-19T11:38:02.436Z,15.16
2019-03-19T11:39:08.280Z,14.49
2019-03-19T11:40:18.914Z,14.01
2019-03-19T11:41:22.539Z,13.62
2019-03-19T11:42:26.179Z,14.60
2019-03-19T11:43:29.813Z,14.46
2019-03-19T11:44:33.476Z,14.50
2019-03-19T11:45:37.108Z,14.46
2019-03-19T11:46:40.740Z,14.45
2019-03-19T11:47:44.455Z,14.35
2019-03-19T11:48:48.082Z,13.58
2019-03-19T11:49:51.755Z,14.33
2019-03-19T11:50:55.504Z,14.22
2019-03-19T11:51:59.138Z,13.99
2019-03-19T11:53:02.768Z,14.01
2019-03-19T11:54:06.412Z,13.73
2019-03-19T11:55:12.383Z,14.34
2019-03-19T11:56:16.014Z,14.06
2019-03-19T11:57:19.650Z,14.24
2019-03-19T11:58:23.279Z,13.90
2019-03-19T11:59:26.915Z,14.11
2019-03-19T12:00:45.230Z,13.80
2019-03-19T12:01:48.936Z,14.66
2019-03-19T12:02:55.692Z,14.78
2019-03-19T12:03:59.299Z,14.14
2019-03-19T12:05:05.672Z,14.28
2019-03-19T12:06:09.342Z,14.04
2019-03-19T12:07:12.975Z,14.05
2019-03-19T12:08:16.616Z,14.20
2019-03-19T12:09:23.633Z,13.54
2019-03-19T12:10:31.380Z,13.36
2019-03-19T12:11:35.050Z,13.27
2019-03-19T12:12:41.645Z,13.42
2019-03-19T12:13:45.628Z,13.55
2019-03-19T12:14:49.259Z,13.44
2019-03-19T12:15:52.962Z,14.38
2019-03-19T12:16:56.636Z,15.56
2019-03-19T12:18:00.559Z,13.82
2019-03-19T12:19:04.190Z,13.70
2019-03-19T12:20:12.983Z,13.94
2019-03-19T12:21:16.537Z,13.97
2019-03-19T12:22:20.225Z,13.25
2019-03-19T12:23:23.857Z,13.64
2019-03-19T12:24:27.489Z,14.25
2019-03-19T12:25:31.612Z,15.08
2019-03-19T12:26:35.299Z,14.19
2019-03-19T12:27:38.962Z,14.46
2019-03-19T12:28:42.591Z,14.19
2019-03-19T12:29:46.229Z,15.17
2019-03-19T12:30:49.912Z,15.37
2019-03-19T12:31:53.537Z,14.53
2019-03-19T12:32:57.173Z,14.22
2019-03-19T12:34:00.810Z,14.69
2019-03-19T12:35:06.141Z,15.94
2019-03-19T12:36:09.786Z,15.64
2019-03-19T12:37:13.412Z,15.74
2019-03-19T12:38:17.084Z,14.81
2019-03-19T12:39:20.766Z,14.61
2019-03-19T12:40:35.962Z,15.55
2019-03-19T12:41:30.356Z,15.53
2019-03-19T12:42:33.992Z,16.14
2019-03-19T12:43:37.627Z,15.36
2019-03-19T12:44:41.256Z,15.15
2019-03-19T12:45:45.284Z,15.22
2019-03-19T12:46:48.936Z,16.02
2019-03-19T12:47:54.613Z,15.20
2019-03-19T12:48:58.063Z,15.22
2019-03-19T12:50:01.708Z,14.90
2019-03-19T12:51:05.343Z,15.69
2019-03-19T12:52:08.907Z,16.05
2019-03-19T12:53:24.899Z,16.18
2019-03-19T12:54:29.000Z,15.85
2019-03-19T12:55:32.960Z,15.66
2019-03-19T12:56:36.527Z,16.61
2019-03-19T12:58:04.207Z,17.06
2019-03-19T12:59:19.503Z,16.00
2019-03-19T13:00:34.250Z,16.20
2019-03-19T13:01:32.504Z,16.45
2019-03-19T13:02:36.204Z,15.99
2019-03-19T13:03:39.847Z,15.94
2019-03-19T13:04:43.471Z,15.30
2019-03-19T13:05:47.140Z,15.48
2019-03-19T13:06:50.773Z,15.42
2019-03-19T13:07:54.418Z,16.57
2019-03-19T13:08:58.049Z,15.73
2019-03-19T13:10:01.718Z,15.75
2019-03-19T13:11:05.387Z,15.48
2019-03-19T13:12:09.204Z,15.69
2019-03-19T13:13:12.839Z,15.60
2019-03-19T13:14:16.488Z,15.16
2019-03-19T13:15:20.726Z,15.82
2019-03-19T13:16:24.396Z,15.86
2019-03-19T13:17:28.097Z,15.90
2019-03-19T13:18:31.728Z,16.15
2019-03-19T13:19:35.357Z,16.26
2019-03-19T13:20:38.998Z,16.91
2019-03-19T13:21:42.672Z,15.93
2019-03-19T13:22:46.306Z,16.49
2019-03-19T13:23:49.928Z,16.36
2019-03-19T13:24:53.595Z,16.51
2019-03-19T13:25:57.301Z,16.61
2019-03-19T13:27:01.372Z,16.42
2019-03-19T13:28:05.209Z,17.01
2019-03-19T13:29:08.866Z,16.77
2019-03-19T13:30:15.268Z,17.60
2019-03-19T13:31:18.884Z,16.57
2019-03-19T13:32:22.528Z,16.93
2019-03-19T13:33:26.197Z,17.22
2019-03-19T13:34:29.852Z,17.01
2019-03-19T13:35:33.471Z,17.03
2019-03-19T13:36:37.218Z,16.72
2019-03-19T13:37:40.889Z,16.41
2019-03-19T13:38:44.526Z,16.71
2019-03-19T13:39:48.258Z,16.91
2019-03-19T13:40:52.016Z,17.68
2019-03-19T13:41:55.618Z,18.06
2019-03-19T13:42:59.284Z,17.76
2019-03-19T13:44:03.116Z,18.21
2019-03-19T13:45:09.617Z,18.77
2019-03-19T13:46:13.257Z,19.33
2019-03-19T13:47:16.964Z,19.89
2019-03-19T13:48:20.643Z,20.03
2019-03-19T13:49:24.277Z,20.12
2019-03-19T13:50:27.913Z,21.00
2019-03-19T13:51:31.560Z,20.49
2019-03-19T13:52:35.198Z,19.84
2019-03-19T13:53:38.936Z,19.33
2019-03-19T13:54:42.660Z,19.43
2019-03-19T13:55:46.285Z,19.02
2019-03-19T13:56:49.937Z,18.58
2019-03-19T13:57:53.574Z,19.04
2019-03-19T13:58:57.176Z,19.16
2019-03-19T14:00:00.889Z,18.60